Fuzhou Changle International

Airport
ICAO code: 
ZSFZ
IATA Code: 
FOC
Summary
ICAO Region: 
APAC
Territory: 
Location: 
Changle, Fujian
Serving: 
Fuzhou
Elevation: 
46 ft
Coordinates: 
Aerial View: 
25° 56' 6" N, 119° 39' 47.999" E
Metar
Observation
ZSFZ 021900Z 00000MPS CAVOK 09/06 Q1023 NOSIG
Station
Fuzhou
Date/Time
2021-12-02 19:00:00
Wind direction
Lowest cloud amount
clouds and visibility OK
Temperature
9°C
Dew point
6°C
Humidity
81%
QNH
1023 hPa
Weather condition
n/a

Description

Fuzhou Changle International Airport is an airport serving Fuzhou, the capital of Fujian province, China. The airport is located near the shore of the Taiwan Strait in Zhanggang Subdistrict, Changle, about 50 km east of Fuzhou's city center.

Climatology

Within the Köppen Climate Classification System, ((Koppen climate classification Cwa)) this climate type generally has warm and humid summers with mild winters. Its extent is from 30 to 50° of latitude mainly on the eastern and western borders of most continents. During the winter, the main weather feature is the mid-latitude cyclone. Convective thunderstorms provide precipitation in the summer months.

Runways

Designator Length Width Surface Rops
3/21 3609 46 CON Yes/Yes
Airport map: 
Aerial View: 

SKYbrary Partners:

Safety knowledge contributed by: